Donnie Sonier — WDF9285 — position and weather

sailwx.info

Track history (hours):
 
Tides and Currents Weather Stations Pressure Air Temp Water Temp Dewpoint Dewpoint Depression Visibility Wind Speed Wind Dir Waves Ship Positions

Donnie Sonier

Owner: LeBeouf Bros. Towing, LLC, Houma, LA. More information available from US FCC via Universal Licensing System and Coast Guard Vessel Documentation Center.

Last reported at 2016-Jun-28 22:22 UTC. Time now 2016-Jun-29 12:57 UTC.
Position N 29°47' W 095°04'.

Length 22 m.

Type: Tug. MMSI: 367503580.

Date/timePositionNaut miles runAvg speedWind from/ knotsBaromVisibWave heightAir tempDewpointWater temp
2016-Jun-28 22:22N 29°47' W 095°04'1 0.5
2016-Jun-28 21:21N 29°47' W 095°04'5 1.5
2016-Jun-28 18:21N 29°44' W 095°08'6 0.2
2016-Jun-27 14:22N 29°43' W 095°01'6 6.4
2016-Jun-27 13:30N 29°38' W 094°58'6 6.6
2016-Jun-27 12:33N 29°33' W 094°54'1 0.1
2016-Jun-26 19:32N 29°34' W 094°55'6 6.4
2016-Jun-26 18:33N 29°39' W 094°58'6 5.5
2016-Jun-26 17:31N 29°44' W 095°02'1 0.0
2016-Jun-25 08:32N 29°44' W 095°03'0 0.0
2016-Jun-24 15:09N 29°44' W 095°03'0 0.0
2016-Jun-24 11:15N 29°44' W 095°03'0 0.0
2016-Jun-24 10:28N 29°44' W 095°03'4 4.6
2016-Jun-24 09:34N 29°41' W 094°59'6 6.4
2016-Jun-24 08:33N 29°35' W 094°56'  
2016-Jun-19 07:19N 29°32' W 094°54'4 5.5
2016-Jun-19 06:33N 29°36' W 094°57'6 6.1
2016-Jun-19 05:33N 29°41' W 094°59'  
Track history (hours):
 
Tides and Currents Weather Stations Pressure Air Temp Water Temp Dewpoint Dewpoint Depression Visibility Wind Speed Wind Dir Waves Ship Positions

Donnie Sonier

Owner: LeBeouf Bros. Towing, LLC, Houma, LA. More information available from US FCC via Universal Licensing System and Coast Guard Vessel Documentation Center.

Last reported at 2016-Jun-28 22:22 UTC. Time now 2016-Jun-29 12:57 UTC.
Position N 29°47' W 095°04'.

Length 22 m.

Type: Tug. MMSI: 367503580.

Date/timePositionNaut miles runAvg speedWind from/ knotsBaromVisibWave heightAir tempDewpointWater temp
2016-Jun-28 22:22N 29°47' W 095°04'1 0.5
2016-Jun-28 21:21N 29°47' W 095°04'5 1.5
2016-Jun-28 18:21N 29°44' W 095°08'6 0.2
2016-Jun-27 14:22N 29°43' W 095°01'6 6.4
2016-Jun-27 13:30N 29°38' W 094°58'6 6.6
2016-Jun-27 12:33N 29°33' W 094°54'1 0.1
2016-Jun-26 19:32N 29°34' W 094°55'6 6.4
2016-Jun-26 18:33N 29°39' W 094°58'6 5.5
2016-Jun-26 17:31N 29°44' W 095°02'1 0.0
2016-Jun-25 08:32N 29°44' W 095°03'0 0.0
2016-Jun-24 15:09N 29°44' W 095°03'0 0.0
2016-Jun-24 11:15N 29°44' W 095°03'0 0.0
2016-Jun-24 10:28N 29°44' W 095°03'4 4.6
2016-Jun-24 09:34N 29°41' W 094°59'6 6.4
2016-Jun-24 08:33N 29°35' W 094°56'  
2016-Jun-19 07:19N 29°32' W 094°54'4 5.5
2016-Jun-19 06:33N 29°36' W 094°57'6 6.1
2016-Jun-19 05:33N 29°41' W 094°59'  

Dump ship's entire track history